createdAt,value
2018-12-27T00:00:29.394Z,25.30
2018-12-27T00:02:58.476Z,23.60
2018-12-27T00:05:27.547Z,23.33
2018-12-27T00:07:56.848Z,25.03
2018-12-27T00:10:25.830Z,23.13
2018-12-27T00:12:54.834Z,22.83
2018-12-27T00:15:24.143Z,24.13
2018-12-27T00:17:53.240Z,22.87
2018-12-27T00:20:22.388Z,23.53
2018-12-27T00:22:51.611Z,24.37
2018-12-27T00:25:20.692Z,22.37
2018-12-27T00:27:49.696Z,23.10
2018-12-27T00:30:19.113Z,22.70
2018-12-27T00:32:48.186Z,21.90
2018-12-27T00:35:17.282Z,24.30
2018-12-27T00:37:46.594Z,21.80
2018-12-27T00:40:15.786Z,20.80
2018-12-27T00:42:44.932Z,25.07
2018-12-27T00:45:14.100Z,25.07
2018-12-27T00:47:43.192Z,23.80
2018-12-27T00:50:12.392Z,21.90
2018-12-27T00:52:41.684Z,25.90
2018-12-27T00:55:10.754Z,23.17
2018-12-27T00:57:39.874Z,20.43
2018-12-27T01:00:24.197Z,21.50
2018-12-27T01:02:53.356Z,20.73
2018-12-27T01:05:22.836Z,23.27
2018-12-27T01:07:51.907Z,20.97
2018-12-27T01:10:21.031Z,22.30
2018-12-27T01:12:50.318Z,22.03
2018-12-27T01:15:19.433Z,23.20
2018-12-27T01:17:48.530Z,22.40
2018-12-27T01:20:17.799Z,23.80
2018-12-27T01:22:46.961Z,25.37
2018-12-27T01:25:16.070Z,24.67
2018-12-27T01:27:45.287Z,20.87
2018-12-27T01:30:14.419Z,24.67
2018-12-27T01:32:43.520Z,22.87
2018-12-27T01:35:12.837Z,22.67
2018-12-27T01:37:41.960Z,22.73
2018-12-27T01:40:11.043Z,23.20
2018-12-27T01:42:40.484Z,24.07
2018-12-27T01:45:09.621Z,23.90
2018-12-27T01:47:38.719Z,25.77
2018-12-27T01:50:07.979Z,25.00
2018-12-27T01:52:37.081Z,24.57
2018-12-27T01:55:06.165Z,23.57
2018-12-27T01:57:35.575Z,23.20
2018-12-27T02:00:04.761Z,24.17
2018-12-27T02:02:33.913Z,27.70
2018-12-27T02:05:03.365Z,26.67
2018-12-27T02:07:32.505Z,23.60
2018-12-27T02:10:20.913Z,25.57
2018-12-27T02:12:50.001Z,26.13
2018-12-27T02:15:19.075Z,28.73
2018-12-27T02:17:48.305Z,27.53
2018-12-27T02:20:17.389Z,24.83
2018-12-27T02:22:46.498Z,21.87
2018-12-27T02:25:34.691Z,27.43
2018-12-27T02:28:03.824Z,28.03
2018-12-27T02:30:32.969Z,27.00
2018-12-27T02:33:02.337Z,24.63
2018-12-27T02:35:31.401Z,25.87
2018-12-27T02:38:00.485Z,26.13
2018-12-27T02:40:29.830Z,29.30
2018-12-27T02:42:58.973Z,25.00
2018-12-27T02:45:28.091Z,26.63
2018-12-27T02:47:57.506Z,24.97
2018-12-27T02:50:26.606Z,25.53
2018-12-27T02:52:55.722Z,25.97
2018-12-27T02:55:24.911Z,24.40
2018-12-27T02:57:53.999Z,26.23
2018-12-27T03:00:26.193Z,25.37
2018-12-27T03:02:55.318Z,25.53
2018-12-27T03:05:24.707Z,28.17
2018-12-27T03:07:53.986Z,24.33
2018-12-27T03:10:23.086Z,28.10
2018-12-27T03:12:52.159Z,28.07
2018-12-27T03:15:21.460Z,26.67
2018-12-27T03:17:50.556Z,22.87
2018-12-27T03:20:19.646Z,26.77
2018-12-27T03:22:49.141Z,24.60
2018-12-27T03:25:18.326Z,27.03
2018-12-27T03:27:47.415Z,24.60
2018-12-27T03:30:16.871Z,28.03
2018-12-27T03:32:46.122Z,25.40
2018-12-27T03:35:15.189Z,27.07
2018-12-27T03:37:44.535Z,27.43
2018-12-27T03:40:13.623Z,27.97
2018-12-27T03:42:42.721Z,25.87
2018-12-27T03:45:12.036Z,23.40
2018-12-27T03:47:41.130Z,26.80
2018-12-27T03:50:10.255Z,24.87
2018-12-27T03:52:39.651Z,23.90
2018-12-27T03:55:09.853Z,26.63
2018-12-27T03:57:39.012Z,26.90
2018-12-27T04:00:11.106Z,24.13
2018-12-27T04:02:40.223Z,26.73
2018-12-27T04:05:09.324Z,24.97
2018-12-27T04:07:38.436Z,26.60
2018-12-27T04:10:07.583Z,27.37
2018-12-27T04:12:36.806Z,23.50
2018-12-27T04:15:09.669Z,21.30
2018-12-27T04:17:38.574Z,22.27
2018-12-27T04:20:07.623Z,27.20
2018-12-27T04:22:36.857Z,24.47
2018-12-27T04:25:06.048Z,26.43
2018-12-27T04:27:35.108Z,24.83
2018-12-27T04:30:04.751Z,25.77
2018-12-27T04:32:34.621Z,26.47
2018-12-27T04:35:03.714Z,24.97
2018-12-27T04:37:32.855Z,26.60
2018-12-27T04:40:02.004Z,25.10
2018-12-27T04:42:32.295Z,23.83
2018-12-27T04:45:01.408Z,26.60
2018-12-27T04:47:30.717Z,24.70
2018-12-27T04:50:00.923Z,26.63
2018-12-27T04:52:30.121Z,26.70
2018-12-27T04:54:59.548Z,26.27
2018-12-27T04:57:28.559Z,24.67
2018-12-27T04:59:57.663Z,24.97
2018-12-27T05:02:26.999Z,24.07
2018-12-27T05:04:56.090Z,23.77
2018-12-27T05:07:25.186Z,23.13
2018-12-27T05:10:13.635Z,23.47
2018-12-27T05:12:42.707Z,24.97
2018-12-27T05:15:11.690Z,23.50
2018-12-27T05:17:40.922Z,25.23
2018-12-27T05:20:09.934Z,24.43
2018-12-27T05:22:39.005Z,25.97
2018-12-27T05:25:08.415Z,25.23
2018-12-27T05:27:37.517Z,23.90
2018-12-27T05:30:06.673Z,26.60
2018-12-27T05:32:35.903Z,25.07
2018-12-27T05:35:05.025Z,24.37
2018-12-27T05:37:34.110Z,26.70
2018-12-27T05:40:03.632Z,22.80
2018-12-27T05:42:32.657Z,23.53
2018-12-27T05:45:01.938Z,21.13
2018-12-27T05:47:31.287Z,25.23
2018-12-27T05:50:00.310Z,22.17
2018-12-27T05:52:29.414Z,23.33
2018-12-27T05:54:58.681Z,23.27
2018-12-27T05:57:27.995Z,22.33
2018-12-27T05:59:57.089Z,23.00
2018-12-27T06:02:26.465Z,25.17
2018-12-27T06:04:55.752Z,25.20
2018-12-27T06:07:24.896Z,23.47
2018-12-27T06:09:54.171Z,25.70
2018-12-27T06:12:23.256Z,22.63
2018-12-27T06:14:52.342Z,24.57
2018-12-27T06:17:21.922Z,24.13
2018-12-27T06:19:51.070Z,24.67
2018-12-27T06:22:20.122Z,24.80
2018-12-27T06:24:49.597Z,25.33
2018-12-27T06:27:18.783Z,25.57
2018-12-27T06:29:47.994Z,27.17
2018-12-27T06:32:17.026Z,25.13
2018-12-27T06:34:46.154Z,35.43
2018-12-27T06:37:15.294Z,21.27
2018-12-27T06:39:44.662Z,22.43
2018-12-27T06:42:13.840Z,23.93
2018-12-27T06:44:43.091Z,26.13
2018-12-27T06:47:12.545Z,24.87
2018-12-27T06:49:41.684Z,25.13
2018-12-27T06:52:10.725Z,26.30
2018-12-27T06:54:39.941Z,27.33
2018-12-27T06:57:10.840Z,26.43
2018-12-27T06:59:40.063Z,23.20
2018-12-27T07:02:09.193Z,24.73
2018-12-27T07:04:38.203Z,23.93
2018-12-27T07:07:07.202Z,27.37
2018-12-27T07:09:36.578Z,25.03
2018-12-27T07:12:05.608Z,22.00
2018-12-27T07:14:34.758Z,25.90
2018-12-27T07:17:04.156Z,24.73
2018-12-27T07:19:33.169Z,23.83
2018-12-27T07:22:02.340Z,26.73
2018-12-27T07:24:31.631Z,24.47
2018-12-27T07:27:00.725Z,24.93
2018-12-27T07:29:29.810Z,24.77
2018-12-27T07:31:59.133Z,22.53
2018-12-27T07:34:28.236Z,23.67
2018-12-27T07:36:57.368Z,26.60
2018-12-27T07:39:26.625Z,49.43
2018-12-27T07:41:55.638Z,26.43
2018-12-27T07:44:24.734Z,24.87
2018-12-27T07:46:54.232Z,25.40
2018-12-27T07:49:23.388Z,25.07
2018-12-27T07:51:52.491Z,24.77
2018-12-27T07:54:22.386Z,25.47
2018-12-27T07:56:51.417Z,31.90
2018-12-27T07:59:20.480Z,24.47
2018-12-27T08:01:49.812Z,27.37
2018-12-27T08:04:18.866Z,26.63
2018-12-27T08:06:47.886Z,24.43
2018-12-27T08:09:17.542Z,26.53
2018-12-27T08:11:46.614Z,26.53
2018-12-27T08:14:17.085Z,31.63
2018-12-27T08:16:46.282Z,28.13
2018-12-27T08:19:16.170Z,28.60
2018-12-27T08:21:45.386Z,27.07
2018-12-27T08:24:19.659Z,27.33
2018-12-27T08:26:48.894Z,23.30
2018-12-27T08:29:18.026Z,27.43
2018-12-27T08:31:47.322Z,24.03
2018-12-27T08:34:16.538Z,24.43
2018-12-27T08:36:45.772Z,24.43
2018-12-27T08:39:15.011Z,22.97
2018-12-27T08:41:44.161Z,26.33
2018-12-27T08:44:13.249Z,21.10
2018-12-27T08:46:42.444Z,23.20
2018-12-27T08:49:11.539Z,20.10
2018-12-27T08:51:40.627Z,22.37
2018-12-27T08:54:10.768Z,22.77
2018-12-27T08:56:40.085Z,21.17
2018-12-27T08:59:09.223Z,22.13
2018-12-27T09:01:38.575Z,22.90
2018-12-27T09:04:07.794Z,17.93
2018-12-27T09:06:36.951Z,20.80
2018-12-27T09:09:08.555Z,21.03
2018-12-27T09:11:38.072Z,22.33
2018-12-27T09:14:08.077Z,23.57
2018-12-27T09:16:37.259Z,21.23
2018-12-27T09:19:06.378Z,24.13
2018-12-27T09:21:35.507Z,19.63
2018-12-27T09:24:04.791Z,19.73
2018-12-27T09:26:33.994Z,20.90
2018-12-27T09:29:03.203Z,20.30
2018-12-27T09:31:33.531Z,19.10
2018-12-27T09:34:03.417Z,22.40
2018-12-27T09:36:33.365Z,22.23
2018-12-27T09:39:02.882Z,20.23
2018-12-27T09:41:31.997Z,20.87
2018-12-27T09:44:01.415Z,22.47
2018-12-27T09:46:30.601Z,21.70
2018-12-27T09:49:00.713Z,22.27
2018-12-27T09:51:31.545Z,23.33
2018-12-27T09:54:01.155Z,25.03
2018-12-27T09:56:30.276Z,21.33
2018-12-27T09:59:00.012Z,20.83
2018-12-27T10:01:29.472Z,21.40
2018-12-27T10:04:17.650Z,21.97
2018-12-27T10:06:46.854Z,19.53
2018-12-27T10:09:15.876Z,24.97
2018-12-27T10:11:44.943Z,21.47
2018-12-27T10:14:14.454Z,25.20
2018-12-27T10:16:43.514Z,21.57
2018-12-27T10:19:12.632Z,22.30
2018-12-27T10:21:41.951Z,21.97
2018-12-27T10:24:11.067Z,22.93
2018-12-27T10:26:40.215Z,24.10
2018-12-27T10:29:09.523Z,23.33
2018-12-27T10:31:38.541Z,26.47
2018-12-27T10:34:07.663Z,22.47
2018-12-27T10:36:36.817Z,23.37
2018-12-27T10:39:13.274Z,23.07
2018-12-27T10:41:42.693Z,20.27
2018-12-27T10:44:11.767Z,21.70
2018-12-27T10:46:40.773Z,21.90
2018-12-27T10:49:10.016Z,20.30
2018-12-27T10:51:39.020Z,21.23
2018-12-27T10:54:08.100Z,22.43
2018-12-27T10:56:37.367Z,24.10
2018-12-27T10:59:06.449Z,23.90
2018-12-27T11:01:35.527Z,20.77
2018-12-27T11:04:04.802Z,23.67
2018-12-27T11:06:33.883Z,24.40
2018-12-27T11:09:03.899Z,23.17
2018-12-27T11:11:33.333Z,23.73
2018-12-27T11:14:02.451Z,24.57
2018-12-27T11:16:31.525Z,23.03
2018-12-27T11:19:00.648Z,20.80
2018-12-27T11:21:29.665Z,23.00
2018-12-27T11:23:58.600Z,17.87
2018-12-27T11:26:27.881Z,21.97
2018-12-27T11:28:56.955Z,20.83
2018-12-27T11:31:25.971Z,17.53
2018-12-27T11:33:55.224Z,17.10
2018-12-27T11:36:24.274Z,16.60
2018-12-27T11:38:53.352Z,16.27
2018-12-27T11:41:22.509Z,16.90
2018-12-27T11:43:51.586Z,18.53
2018-12-27T11:46:20.694Z,18.67
2018-12-27T11:48:49.905Z,17.80
2018-12-27T11:51:19.031Z,19.47
2018-12-27T11:53:48.153Z,17.50
2018-12-27T11:56:17.284Z,20.07
2018-12-27T11:58:46.342Z,17.90
2018-12-27T12:01:15.454Z,19.97
2018-12-27T12:03:44.778Z,19.60
2018-12-27T12:06:13.957Z,18.07
2018-12-27T12:08:43.159Z,19.47
2018-12-27T12:11:12.367Z,21.90
2018-12-27T12:13:41.334Z,19.27
2018-12-27T12:16:10.448Z,21.13
2018-12-27T12:18:39.658Z,22.07
2018-12-27T12:21:08.834Z,17.53
2018-12-27T12:23:37.932Z,23.53
2018-12-27T12:26:07.148Z,23.60
2018-12-27T12:28:36.212Z,21.83
2018-12-27T12:31:05.201Z,17.07
2018-12-27T12:33:34.273Z,24.80
2018-12-27T12:36:10.366Z,21.27
2018-12-27T12:38:34.386Z,17.67
2018-12-27T12:41:03.765Z,20.10
2018-12-27T12:43:32.851Z,22.90
2018-12-27T12:46:01.952Z,18.03
2018-12-27T12:48:31.287Z,20.03
2018-12-27T12:51:00.375Z,18.37
2018-12-27T12:53:29.544Z,22.63
2018-12-27T12:55:58.762Z,20.80
2018-12-27T12:58:27.857Z,18.00
2018-12-27T13:00:56.949Z,20.10
2018-12-27T13:03:26.251Z,21.00
2018-12-27T13:05:55.330Z,18.53
2018-12-27T13:08:24.033Z,18.97
2018-12-27T13:10:53.110Z,21.83
2018-12-27T13:13:22.324Z,19.63
2018-12-27T13:15:51.338Z,20.30
2018-12-27T13:18:20.616Z,20.43
2018-12-27T13:20:49.706Z,18.80
2018-12-27T13:23:18.706Z,17.03
2018-12-27T13:25:48.096Z,17.13
2018-12-27T13:28:17.167Z,17.53
2018-12-27T13:30:46.172Z,19.47
2018-12-27T13:33:15.500Z,17.67
2018-12-27T13:35:44.562Z,17.27
2018-12-27T13:38:13.668Z,18.20
2018-12-27T13:40:42.870Z,19.73
2018-12-27T13:43:12.018Z,17.73
2018-12-27T13:45:41.093Z,18.43
2018-12-27T13:48:10.476Z,19.53
2018-12-27T13:50:40.474Z,20.03
2018-12-27T13:53:10.235Z,17.90
2018-12-27T13:55:39.485Z,16.13
2018-12-27T13:58:08.629Z,18.77
2018-12-27T14:00:37.699Z,16.23
2018-12-27T14:03:06.900Z,18.27
2018-12-27T14:05:36.084Z,16.20
2018-12-27T14:08:05.219Z,19.47
2018-12-27T14:10:34.533Z,16.77
2018-12-27T14:13:03.643Z,18.43
2018-12-27T14:15:32.700Z,17.30
2018-12-27T14:18:01.809Z,17.67
2018-12-27T14:20:30.884Z,17.87
2018-12-27T14:22:59.960Z,17.57
2018-12-27T14:25:29.367Z,20.07
2018-12-27T14:27:58.417Z,17.60
2018-12-27T14:30:27.505Z,16.47
2018-12-27T14:32:56.850Z,19.27
2018-12-27T14:35:25.931Z,17.07
2018-12-27T14:37:54.991Z,19.33
2018-12-27T14:40:24.335Z,16.10
2018-12-27T14:42:53.482Z,18.63
2018-12-27T14:45:22.419Z,18.80
2018-12-27T14:47:51.635Z,21.00
2018-12-27T14:50:20.695Z,18.60
2018-12-27T14:52:49.785Z,21.40
2018-12-27T14:55:19.128Z,21.97
2018-12-27T14:57:48.777Z,20.63
2018-12-27T15:00:18.620Z,22.20
2018-12-27T15:02:47.787Z,27.93
2018-12-27T15:05:17.075Z,31.87
2018-12-27T15:07:46.213Z,35.77
2018-12-27T15:10:15.297Z,31.87
2018-12-27T15:12:44.773Z,28.53
2018-12-27T15:15:13.976Z,23.43
2018-12-27T15:17:43.240Z,26.03
2018-12-27T15:20:12.306Z,26.70
2018-12-27T15:22:41.399Z,23.20
2018-12-27T15:25:10.815Z,20.33
2018-12-27T15:27:39.887Z,25.80
2018-12-27T15:30:08.977Z,21.33
2018-12-27T15:32:38.226Z,22.97
2018-12-27T15:35:07.330Z,26.30
2018-12-27T15:37:36.447Z,19.40
2018-12-27T15:40:06.005Z,20.43
2018-12-27T15:42:35.218Z,23.03
2018-12-27T15:45:04.442Z,21.73
2018-12-27T15:47:33.838Z,24.63
2018-12-27T15:50:02.958Z,20.73
2018-12-27T15:52:32.105Z,20.50
2018-12-27T15:55:01.572Z,23.30
2018-12-27T15:57:30.682Z,23.33
2018-12-27T15:59:59.780Z,20.37
2018-12-27T16:02:29.000Z,22.70
2018-12-27T16:04:58.219Z,23.83
2018-12-27T16:07:27.348Z,19.87
2018-12-27T16:09:56.691Z,20.67
2018-12-27T16:12:25.775Z,20.97
2018-12-27T16:14:54.885Z,24.60
2018-12-27T16:17:24.693Z,19.87
2018-12-27T16:19:53.811Z,20.80
2018-12-27T16:22:22.952Z,21.43
2018-12-27T16:24:52.079Z,24.37
2018-12-27T16:27:21.281Z,22.33
2018-12-27T16:29:50.567Z,20.23
2018-12-27T16:32:19.991Z,21.30
2018-12-27T16:34:48.981Z,20.07
2018-12-27T16:37:17.991Z,21.83
2018-12-27T16:39:47.272Z,22.77
2018-12-27T16:42:21.883Z,20.43
2018-12-27T16:44:47.210Z,23.03
2018-12-27T16:47:16.595Z,24.60
2018-12-27T16:49:45.702Z,22.70
2018-12-27T16:52:14.798Z,25.23
2018-12-27T16:54:44.198Z,25.43
2018-12-27T16:57:19.516Z,24.47
2018-12-27T16:59:44.162Z,24.43
2018-12-27T17:02:13.431Z,21.63
2018-12-27T17:04:42.592Z,23.43
2018-12-27T17:07:16.051Z,26.33
2018-12-27T17:09:42.556Z,25.17
2018-12-27T17:12:11.688Z,21.57
2018-12-27T17:14:40.770Z,23.43
2018-12-27T17:17:10.080Z,23.37
2018-12-27T17:19:39.405Z,22.33
2018-12-27T17:22:08.512Z,24.37
2018-12-27T17:24:37.787Z,23.63
2018-12-27T17:27:06.865Z,19.60
2018-12-27T17:29:35.974Z,25.53
2018-12-27T17:32:05.431Z,23.83
2018-12-27T17:34:34.454Z,24.30
2018-12-27T17:37:03.491Z,24.60
2018-12-27T17:39:32.569Z,25.23
2018-12-27T17:42:01.653Z,25.80
2018-12-27T17:44:30.587Z,22.63
2018-12-27T17:46:59.813Z,25.03
2018-12-27T17:49:28.949Z,25.13
2018-12-27T17:51:58.075Z,31.17
2018-12-27T17:54:27.399Z,31.53
2018-12-27T17:56:56.476Z,31.33
2018-12-27T17:59:25.569Z,30.83
2018-12-27T18:01:54.888Z,35.20
2018-12-27T18:04:23.955Z,41.70
2018-12-27T18:06:53.073Z,38.40
2018-12-27T18:09:22.365Z,43.80
2018-12-27T18:11:51.445Z,40.50
2018-12-27T18:14:21.506Z,42.87
2018-12-27T18:16:50.815Z,33.33
2018-12-27T18:19:19.899Z,35.13
2018-12-27T18:21:49.011Z,39.27
2018-12-27T18:24:18.279Z,33.47
2018-12-27T18:26:47.375Z,33.40
2018-12-27T18:29:16.533Z,33.43
2018-12-27T18:32:05.018Z,31.50
2018-12-27T18:34:34.138Z,30.37
2018-12-27T18:37:03.222Z,29.87
2018-12-27T18:39:32.522Z,31.97
2018-12-27T18:42:01.612Z,30.87
2018-12-27T18:44:30.630Z,31.27
2018-12-27T18:46:59.852Z,30.83
2018-12-27T18:49:28.939Z,32.37
2018-12-27T18:51:58.130Z,30.63
2018-12-27T18:54:27.394Z,27.63
2018-12-27T18:56:56.560Z,29.30
2018-12-27T18:59:25.632Z,26.73
2018-12-27T19:01:54.989Z,30.87
2018-12-27T19:04:24.116Z,33.07
2018-12-27T19:06:53.206Z,37.83
2018-12-27T19:09:22.976Z,33.33
2018-12-27T19:12:27.912Z,34.07
2018-12-27T19:15:03.062Z,32.67
2018-12-27T19:17:38.168Z,26.93
2018-12-27T19:20:07.606Z,27.60
2018-12-27T19:23:13.223Z,29.40
2018-12-27T19:25:42.936Z,27.83
2018-12-27T19:28:12.094Z,27.13
2018-12-27T19:30:41.157Z,25.47
2018-12-27T19:33:10.419Z,25.60
2018-12-27T19:35:39.500Z,29.80
2018-12-27T19:38:08.652Z,28.37
2018-12-27T19:40:37.877Z,28.47
2018-12-27T19:43:06.978Z,29.30
2018-12-27T19:45:36.236Z,27.17
2018-12-27T19:48:05.585Z,27.70
2018-12-27T19:50:34.897Z,27.13
2018-12-27T19:53:04.241Z,27.43
2018-12-27T19:55:33.767Z,24.20
2018-12-27T19:58:02.885Z,26.00
2018-12-27T20:00:32.243Z,26.27
2018-12-27T20:03:01.639Z,27.20
2018-12-27T20:05:30.751Z,25.57
2018-12-27T20:07:59.827Z,25.63
2018-12-27T20:10:29.325Z,23.43
2018-12-27T20:12:58.737Z,23.00
2018-12-27T20:15:27.975Z,20.70
2018-12-27T20:17:57.765Z,22.50
2018-12-27T20:20:27.003Z,23.23
2018-12-27T20:22:56.223Z,25.53
2018-12-27T20:25:25.755Z,22.80
2018-12-27T20:27:54.826Z,28.33
2018-12-27T20:30:24.159Z,26.50
2018-12-27T20:32:53.373Z,26.87
2018-12-27T20:35:22.885Z,31.47
2018-12-27T20:37:51.992Z,26.03
2018-12-27T20:40:21.341Z,25.40
2018-12-27T20:42:50.656Z,26.40
2018-12-27T20:45:19.767Z,25.03
2018-12-27T20:47:48.955Z,25.07
2018-12-27T20:50:18.169Z,26.90
2018-12-27T20:52:47.192Z,25.50
2018-12-27T20:55:16.432Z,24.33
2018-12-27T20:57:45.510Z,23.63
2018-12-27T21:00:16.139Z,25.77
2018-12-27T21:02:45.369Z,29.83
2018-12-27T21:05:14.550Z,25.73
2018-12-27T21:07:43.625Z,27.10
2018-12-27T21:10:12.784Z,24.93
2018-12-27T21:12:41.866Z,27.60
2018-12-27T21:15:10.923Z,26.60
2018-12-27T21:17:40.138Z,28.27
2018-12-27T21:20:10.293Z,29.97
2018-12-27T21:22:39.384Z,33.63
2018-12-27T21:25:08.555Z,35.43
2018-12-27T21:27:37.687Z,30.43
2018-12-27T21:30:07.678Z,33.60
2018-12-27T21:32:36.978Z,30.60
2018-12-27T21:35:06.093Z,30.97
2018-12-27T21:37:35.096Z,31.70
2018-12-27T21:40:23.508Z,31.87
2018-12-27T21:42:52.644Z,31.37
2018-12-27T21:45:21.711Z,31.83
2018-12-27T21:47:51.092Z,29.43
2018-12-27T21:50:20.156Z,29.80
2018-12-27T21:52:49.252Z,28.07
2018-12-27T21:55:18.575Z,28.13
2018-12-27T21:57:47.699Z,28.47
2018-12-27T22:00:20.231Z,29.60
2018-12-27T22:02:49.258Z,34.97
2018-12-27T22:05:18.341Z,29.90
2018-12-27T22:07:47.647Z,26.87
2018-12-27T22:10:16.748Z,29.37
2018-12-27T22:12:45.734Z,26.00
2018-12-27T22:15:15.135Z,24.13
2018-12-27T22:17:44.134Z,24.97
2018-12-27T22:20:13.150Z,24.23
2018-12-27T22:22:42.330Z,23.17
2018-12-27T22:25:11.413Z,22.57
2018-12-27T22:27:40.607Z,24.90
2018-12-27T22:30:09.999Z,23.60
2018-12-27T22:32:39.057Z,25.90
2018-12-27T22:35:08.138Z,26.27
2018-12-27T22:37:37.390Z,26.07
2018-12-27T22:40:06.589Z,25.30
2018-12-27T22:42:37.168Z,24.87
2018-12-27T22:45:06.534Z,24.17
2018-12-27T22:47:35.616Z,25.20
2018-12-27T22:50:05.206Z,30.27
2018-12-27T22:52:34.314Z,27.13
2018-12-27T22:55:03.381Z,23.43
2018-12-27T22:57:32.869Z,26.07
2018-12-27T23:00:02.168Z,24.63
2018-12-27T23:02:31.163Z,23.67
2018-12-27T23:05:00.310Z,27.63
2018-12-27T23:07:30.122Z,26.13
2018-12-27T23:09:59.058Z,25.93
2018-12-27T23:12:28.032Z,26.73
2018-12-27T23:14:57.514Z,27.60
2018-12-27T23:17:26.642Z,28.00
2018-12-27T23:19:55.650Z,26.77
2018-12-27T23:22:24.923Z,28.70
2018-12-27T23:24:54.036Z,28.10
2018-12-27T23:27:23.043Z,24.43
2018-12-27T23:29:52.388Z,28.17
2018-12-27T23:32:21.391Z,28.07
2018-12-27T23:34:50.387Z,25.03
2018-12-27T23:37:19.582Z,27.73
2018-12-27T23:39:48.633Z,28.00
2018-12-27T23:42:17.616Z,25.47
2018-12-27T23:44:46.954Z,27.10
2018-12-27T23:47:16.018Z,28.37
2018-12-27T23:49:45.118Z,28.13
2018-12-27T23:52:14.351Z,23.83
2018-12-27T23:54:43.347Z,29.83
2018-12-27T23:57:12.456Z,25.77
2018-12-27T23:59:42.057Z,25.70
